San Jose, California
Current Conditions -  °F | °C
As of 7:53 AM on Saturday 25 Oct 2014 (Local Time) from KSJC Reporting Station
Moderate Rain Moderate Rain  
Wind Chill: 14°   Ceiling: 2000
Heat Index: 14°   Visibility: 2mi
Dew Point: 14°   Wind: 6mph
Humidity: 97%   Direction: 150°SSE
Pressure: 30.01"   Gusts: NA
Location:  37.35°N, 121.9°W
Report Text: KSJC 251453Z 15005KT 2SM RA BR SCT008 BKN020 OVC026 14/14 A3001 RMK AO2 SLP161 P0005 60008 T01440139 53028
Loading
Personal Weather Stations






























Interactive Weather Map
Tropical Storm Tracking
New forecast layout! Learn more

10-Day Weather Forecast

Advertisements
Track Severe Weather on mobile